sensor_id;sensor_type;location;lat;lon;timestamp;P1;durP1;ratioP1;P2;durP2;ratioP2
56911;SDS011;42800;53.928;27.662;2023-03-01T00:02:09;8.18;;;3.92;;
56911;SDS011;42800;53.928;27.662;2023-03-01T00:04:35;7.93;;;3.90;;
56911;SDS011;42800;53.928;27.662;2023-03-01T00:07:01;5.85;;;3.83;;
56911;SDS011;42800;53.928;27.662;2023-03-01T00:09:28;6.55;;;4.45;;
56911;SDS011;42800;53.928;27.662;2023-03-01T00:11:54;5.65;;;3.75;;
56911;SDS011;42800;53.928;27.662;2023-03-01T00:14:21;7.90;;;4.07;;
56911;SDS011;42800;53.928;27.662;2023-03-01T00:16:47;8.45;;;3.40;;
56911;SDS011;42800;53.928;27.662;2023-03-01T00:19:15;9.32;;;4.13;;
56911;SDS011;42800;53.928;27.662;2023-03-01T00:21:42;9.20;;;4.97;;
56911;SDS011;42800;53.928;27.662;2023-03-01T00:24:08;6.65;;;4.10;;
56911;SDS011;42800;53.928;27.662;2023-03-01T00:26:35;9.13;;;4.82;;
56911;SDS011;42800;53.928;27.662;2023-03-01T00:29:03;11.65;;;4.45;;
56911;SDS011;42800;53.928;27.662;2023-03-01T00:31:30;6.07;;;3.97;;
56911;SDS011;42800;53.928;27.662;2023-03-01T00:33:58;6.93;;;3.72;;
56911;SDS011;42800;53.928;27.662;2023-03-01T00:36:26;10.60;;;3.38;;
56911;SDS011;42800;53.928;27.662;2023-03-01T00:38:54;5.00;;;3.13;;
56911;SDS011;42800;53.928;27.662;2023-03-01T00:41:21;6.35;;;3.30;;
56911;SDS011;42800;53.928;27.662;2023-03-01T00:43:48;4.57;;;3.22;;
56911;SDS011;42800;53.928;27.662;2023-03-01T00:46:16;5.97;;;3.47;;
56911;SDS011;42800;53.928;27.662;2023-03-01T00:48:44;7.18;;;3.10;;
56911;SDS011;42800;53.928;27.662;2023-03-01T00:51:11;6.00;;;2.92;;
56911;SDS011;42800;53.928;27.662;2023-03-01T00:53:39;5.90;;;2.97;;
56911;SDS011;42800;53.928;27.662;2023-03-01T00:56:06;5.78;;;2.90;;
56911;SDS011;42800;53.928;27.662;2023-03-01T00:58:34;6.95;;;2.92;;
56911;SDS011;42800;53.928;27.662;2023-03-01T01:01:01;5.03;;;2.63;;
56911;SDS011;42800;53.928;27.662;2023-03-01T01:03:42;9.05;;;2.83;;
56911;SDS011;42800;53.928;27.662;2023-03-01T01:06:13;5.97;;;3.58;;
56911;SDS011;42800;53.928;27.662;2023-03-01T01:08:40;6.47;;;2.83;;
56911;SDS011;42800;53.928;27.662;2023-03-01T01:11:08;3.67;;;2.00;;
56911;SDS011;42800;53.928;27.662;2023-03-01T01:13:34;5.20;;;2.80;;
56911;SDS011;42800;53.928;27.662;2023-03-01T01:16:01;3.33;;;2.45;;
56911;SDS011;42800;53.928;27.662;2023-03-01T01:18:28;5.97;;;2.72;;
56911;SDS011;42800;53.928;27.662;2023-03-01T01:20:55;4.72;;;2.60;;
56911;SDS011;42800;53.928;27.662;2023-03-01T01:23:21;3.08;;;2.42;;
56911;SDS011;42800;53.928;27.662;2023-03-01T01:25:47;6.05;;;3.08;;
56911;SDS011;42800;53.928;27.662;2023-03-01T01:28:14;6.30;;;2.75;;
56911;SDS011;42800;53.928;27.662;2023-03-01T01:30:40;3.50;;;2.60;;
56911;SDS011;42800;53.928;27.662;2023-03-01T01:33:07;4.38;;;2.88;;
56911;SDS011;42800;53.928;27.662;2023-03-01T01:35:34;4.47;;;2.72;;
56911;SDS011;42800;53.928;27.662;2023-03-01T01:38:00;7.43;;;2.45;;
56911;SDS011;42800;53.928;27.662;2023-03-01T01:40:27;5.13;;;2.60;;
56911;SDS011;42800;53.928;27.662;2023-03-01T01:42:53;7.45;;;2.80;;
56911;SDS011;42800;53.928;27.662;2023-03-01T01:45:26;3.53;;;2.90;;
56911;SDS011;42800;53.928;27.662;2023-03-01T01:47:57;5.25;;;2.30;;
56911;SDS011;42800;53.928;27.662;2023-03-01T01:50:29;5.68;;;2.60;;
56911;SDS011;42800;53.928;27.662;2023-03-01T01:53:04;5.10;;;2.93;;
56911;SDS011;42800;53.928;27.662;2023-03-01T01:55:39;3.75;;;2.42;;
56911;SDS011;42800;53.928;27.662;2023-03-01T01:58:09;10.80;;;2.80;;
56911;SDS011;42800;53.928;27.662;2023-03-01T02:00:39;3.92;;;2.38;;
56911;SDS011;42800;53.928;27.662;2023-03-01T02:03:07;4.10;;;2.35;;
56911;SDS011;42800;53.928;27.662;2023-03-01T02:05:37;5.95;;;2.55;;
56911;SDS011;42800;53.928;27.662;2023-03-01T02:08:09;3.10;;;1.98;;
56911;SDS011;42800;53.928;27.662;2023-03-01T02:10:36;3.33;;;2.25;;
56911;SDS011;42800;53.928;27.662;2023-03-01T02:13:04;5.35;;;2.50;;
56911;SDS011;42800;53.928;27.662;2023-03-01T02:15:31;5.75;;;1.95;;
56911;SDS011;42800;53.928;27.662;2023-03-01T02:17:58;2.47;;;2.00;;
56911;SDS011;42800;53.928;27.662;2023-03-01T02:20:26;3.90;;;2.47;;
56911;SDS011;42800;53.928;27.662;2023-03-01T02:23:00;2.28;;;1.85;;
56911;SDS011;42800;53.928;27.662;2023-03-01T02:25:28;11.85;;;2.70;;
56911;SDS011;42800;53.928;27.662;2023-03-01T02:28:00;2.88;;;2.00;;
56911;SDS011;42800;53.928;27.662;2023-03-01T02:33:01;5.68;;;2.72;;
56911;SDS011;42800;53.928;27.662;2023-03-01T02:35:29;6.25;;;2.13;;
56911;SDS011;42800;53.928;27.662;2023-03-01T02:37:58;6.72;;;2.25;;
56911;SDS011;42800;53.928;27.662;2023-03-01T02:40:25;4.85;;;2.38;;
56911;SDS011;42800;53.928;27.662;2023-03-01T02:42:54;4.50;;;1.90;;
56911;SDS011;42800;53.928;27.662;2023-03-01T02:45:22;6.15;;;2.00;;
56911;SDS011;42800;53.928;27.662;2023-03-01T02:47:49;7.35;;;2.10;;
56911;SDS011;42800;53.928;27.662;2023-03-01T02:50:21;3.88;;;2.03;;
56911;SDS011;42800;53.928;27.662;2023-03-01T02:52:59;4.50;;;1.60;;
56911;SDS011;42800;53.928;27.662;2023-03-01T02:55:30;4.47;;;2.13;;
56911;SDS011;42800;53.928;27.662;2023-03-01T02:57:56;4.57;;;1.63;;
56911;SDS011;42800;53.928;27.662;2023-03-01T03:00:23;3.33;;;2.22;;
56911;SDS011;42800;53.928;27.662;2023-03-01T03:02:55;4.13;;;1.88;;
56911;SDS011;42800;53.928;27.662;2023-03-01T03:05:23;4.53;;;2.22;;
56911;SDS011;42800;53.928;27.662;2023-03-01T03:07:50;3.60;;;2.28;;
56911;SDS011;42800;53.928;27.662;2023-03-01T03:10:18;2.45;;;1.88;;
56911;SDS011;42800;53.928;27.662;2023-03-01T03:12:48;5.93;;;1.90;;
56911;SDS011;42800;53.928;27.662;2023-03-01T03:15:15;3.72;;;1.92;;
56911;SDS011;42800;53.928;27.662;2023-03-01T03:17:42;2.80;;;1.52;;
56911;SDS011;42800;53.928;27.662;2023-03-01T03:20:10;2.15;;;1.88;;
56911;SDS011;42800;53.928;27.662;2023-03-01T03:22:39;6.18;;;1.50;;
56911;SDS011;42800;53.928;27.662;2023-03-01T03:25:06;5.90;;;2.00;;
56911;SDS011;42800;53.928;27.662;2023-03-01T03:27:35;7.30;;;1.88;;
56911;SDS011;42800;53.928;27.662;2023-03-01T03:30:03;7.65;;;1.52;;
56911;SDS011;42800;53.928;27.662;2023-03-01T03:32:34;13.98;;;2.38;;
56911;SDS011;42800;53.928;27.662;2023-03-01T03:35:00;7.15;;;1.35;;
56911;SDS011;42800;53.928;27.662;2023-03-01T03:37:27;6.15;;;1.90;;
56911;SDS011;42800;53.928;27.662;2023-03-01T03:40:12;5.22;;;1.70;;
56911;SDS011;42800;53.928;27.662;2023-03-01T03:42:40;2.17;;;1.63;;
56911;SDS011;42800;53.928;27.662;2023-03-01T03:45:07;5.40;;;1.77;;
56911;SDS011;42800;53.928;27.662;2023-03-01T03:47:33;3.75;;;1.60;;
56911;SDS011;42800;53.928;27.662;2023-03-01T03:50:00;10.60;;;2.40;;
56911;SDS011;42800;53.928;27.662;2023-03-01T03:52:26;3.10;;;1.52;;
56911;SDS011;42800;53.928;27.662;2023-03-01T03:54:53;1.52;;;1.30;;
56911;SDS011;42800;53.928;27.662;2023-03-01T03:57:19;4.50;;;1.50;;
56911;SDS011;42800;53.928;27.662;2023-03-01T03:59:46;7.13;;;2.28;;
56911;SDS011;42800;53.928;27.662;2023-03-01T04:02:12;4.28;;;1.30;;
56911;SDS011;42800;53.928;27.662;2023-03-01T04:04:47;6.35;;;1.70;;
56911;SDS011;42800;53.928;27.662;2023-03-01T04:07:14;3.60;;;1.50;;
56911;SDS011;42800;53.928;27.662;2023-03-01T04:09:41;5.57;;;1.50;;
56911;SDS011;42800;53.928;27.662;2023-03-01T04:12:08;5.47;;;1.77;;
56911;SDS011;42800;53.928;27.662;2023-03-01T04:14:34;6.22;;;1.63;;
56911;SDS011;42800;53.928;27.662;2023-03-01T04:17:00;4.50;;;1.60;;
56911;SDS011;42800;53.928;27.662;2023-03-01T04:19:29;4.75;;;1.75;;
56911;SDS011;42800;53.928;27.662;2023-03-01T04:22:01;15.43;;;2.00;;
56911;SDS011;42800;53.928;27.662;2023-03-01T04:24:32;3.97;;;1.95;;
56911;SDS011;42800;53.928;27.662;2023-03-01T04:26:59;13.10;;;1.70;;
56911;SDS011;42800;53.928;27.662;2023-03-01T04:29:25;5.25;;;1.80;;
56911;SDS011;42800;53.928;27.662;2023-03-01T04:31:51;3.50;;;1.70;;
56911;SDS011;42800;53.928;27.662;2023-03-01T04:34:18;4.22;;;1.30;;
56911;SDS011;42800;53.928;27.662;2023-03-01T04:36:44;1.90;;;1.38;;
56911;SDS011;42800;53.928;27.662;2023-03-01T04:39:11;3.80;;;1.30;;
56911;SDS011;42800;53.928;27.662;2023-03-01T04:41:37;3.65;;;1.30;;
56911;SDS011;42800;53.928;27.662;2023-03-01T04:44:05;4.50;;;1.52;;
56911;SDS011;42800;53.928;27.662;2023-03-01T04:46:31;10.05;;;2.13;;
56911;SDS011;42800;53.928;27.662;2023-03-01T04:48:58;3.80;;;1.75;;
56911;SDS011;42800;53.928;27.662;2023-03-01T04:51:24;7.90;;;1.80;;
56911;SDS011;42800;53.928;27.662;2023-03-01T04:53:50;5.63;;;1.67;;
56911;SDS011;42800;53.928;27.662;2023-03-01T04:56:16;5.97;;;1.58;;
56911;SDS011;42800;53.928;27.662;2023-03-01T04:58:43;2.63;;;1.55;;
56911;SDS011;42800;53.928;27.662;2023-03-01T05:01:11;8.30;;;1.92;;
56911;SDS011;42800;53.928;27.662;2023-03-01T05:03:41;5.13;;;1.50;;
56911;SDS011;42800;53.928;27.662;2023-03-01T05:06:08;4.93;;;1.52;;
56911;SDS011;42800;53.928;27.662;2023-03-01T05:08:35;6.10;;;2.42;;
56911;SDS011;42800;53.928;27.662;2023-03-01T05:11:02;3.70;;;1.88;;
56911;SDS011;42800;53.928;27.662;2023-03-01T05:13:29;8.02;;;2.03;;
56911;SDS011;42800;53.928;27.662;2023-03-01T05:15:55;5.97;;;1.70;;
56911;SDS011;42800;53.928;27.662;2023-03-01T05:18:24;2.88;;;1.33;;
56911;SDS011;42800;53.928;27.662;2023-03-01T05:20:51;6.35;;;1.50;;
56911;SDS011;42800;53.928;27.662;2023-03-01T05:23:17;17.23;;;1.70;;
56911;SDS011;42800;53.928;27.662;2023-03-01T05:25:44;4.57;;;1.50;;
56911;SDS011;42800;53.928;27.662;2023-03-01T05:28:11;4.10;;;1.55;;
56911;SDS011;42800;53.928;27.662;2023-03-01T05:30:37;2.15;;;1.20;;
56911;SDS011;42800;53.928;27.662;2023-03-01T05:33:05;1.45;;;1.00;;
56911;SDS011;42800;53.928;27.662;2023-03-01T05:35:39;2.10;;;1.73;;
56911;SDS011;42800;53.928;27.662;2023-03-01T05:38:06;9.80;;;1.15;;
56911;SDS011;42800;53.928;27.662;2023-03-01T05:40:32;4.35;;;1.58;;
56911;SDS011;42800;53.928;27.662;2023-03-01T05:42:59;2.10;;;1.30;;
56911;SDS011;42800;53.928;27.662;2023-03-01T05:45:27;25.40;;;2.10;;
56911;SDS011;42800;53.928;27.662;2023-03-01T05:47:53;2.03;;;1.50;;
56911;SDS011;42800;53.928;27.662;2023-03-01T05:50:20;4.35;;;1.00;;
56911;SDS011;42800;53.928;27.662;2023-03-01T05:52:50;6.07;;;1.38;;
56911;SDS011;42800;53.928;27.662;2023-03-01T05:55:18;2.58;;;0.82;;
56911;SDS011;42800;53.928;27.662;2023-03-01T05:57:46;3.28;;;1.35;;
56911;SDS011;42800;53.928;27.662;2023-03-01T06:00:13;3.95;;;1.30;;
56911;SDS011;42800;53.928;27.662;2023-03-01T06:02:40;5.35;;;0.68;;
56911;SDS011;42800;53.928;27.662;2023-03-01T06:05:07;3.38;;;0.88;;
56911;SDS011;42800;53.928;27.662;2023-03-01T06:07:35;7.78;;;1.45;;
56911;SDS011;42800;53.928;27.662;2023-03-01T06:10:02;2.78;;;1.20;;
56911;SDS011;42800;53.928;27.662;2023-03-01T06:12:30;3.88;;;1.02;;
56911;SDS011;42800;53.928;27.662;2023-03-01T06:14:57;5.40;;;1.35;;
56911;SDS011;42800;53.928;27.662;2023-03-01T06:17:23;2.13;;;0.90;;
56911;SDS011;42800;53.928;27.662;2023-03-01T06:19:49;10.02;;;1.30;;
56911;SDS011;42800;53.928;27.662;2023-03-01T06:22:15;3.95;;;1.17;;
56911;SDS011;42800;53.928;27.662;2023-03-01T06:24:41;3.92;;;1.27;;
56911;SDS011;42800;53.928;27.662;2023-03-01T06:27:08;7.88;;;0.95;;
56911;SDS011;42800;53.928;27.662;2023-03-01T06:29:35;6.20;;;1.17;;
56911;SDS011;42800;53.928;27.662;2023-03-01T06:32:01;36.10;;;1.38;;
56911;SDS011;42800;53.928;27.662;2023-03-01T06:34:28;2.17;;;1.10;;
56911;SDS011;42800;53.928;27.662;2023-03-01T06:36:54;4.13;;;1.33;;
56911;SDS011;42800;53.928;27.662;2023-03-01T06:39:20;3.63;;;1.30;;
56911;SDS011;42800;53.928;27.662;2023-03-01T06:41:46;4.93;;;1.13;;
56911;SDS011;42800;53.928;27.662;2023-03-01T06:44:13;3.28;;;1.08;;
56911;SDS011;42800;53.928;27.662;2023-03-01T06:46:40;1.58;;;1.10;;
56911;SDS011;42800;53.928;27.662;2023-03-01T06:49:06;5.15;;;1.45;;
56911;SDS011;42800;53.928;27.662;2023-03-01T06:51:34;5.35;;;1.77;;
56911;SDS011;42800;53.928;27.662;2023-03-01T06:54:02;3.58;;;1.17;;
56911;SDS011;42800;53.928;27.662;2023-03-01T06:56:28;3.42;;;1.75;;
56911;SDS011;42800;53.928;27.662;2023-03-01T06:58:54;1.63;;;0.93;;
56911;SDS011;42800;53.928;27.662;2023-03-01T07:01:21;6.00;;;1.60;;
56911;SDS011;42800;53.928;27.662;2023-03-01T07:03:47;4.05;;;1.33;;
56911;SDS011;42800;53.928;27.662;2023-03-01T07:06:14;2.92;;;1.15;;
56911;SDS011;42800;53.928;27.662;2023-03-01T07:08:40;5.50;;;1.27;;
56911;SDS011;42800;53.928;27.662;2023-03-01T07:11:06;2.80;;;1.20;;
56911;SDS011;42800;53.928;27.662;2023-03-01T07:13:33;2.42;;;1.38;;
56911;SDS011;42800;53.928;27.662;2023-03-01T07:15:59;5.22;;;1.05;;
56911;SDS011;42800;53.928;27.662;2023-03-01T07:18:26;6.57;;;1.67;;
56911;SDS011;42800;53.928;27.662;2023-03-01T07:20:52;5.63;;;1.50;;
56911;SDS011;42800;53.928;27.662;2023-03-01T07:23:19;2.28;;;1.33;;
56911;SDS011;42800;53.928;27.662;2023-03-01T07:25:50;2.58;;;1.23;;
56911;SDS011;42800;53.928;27.662;2023-03-01T07:28:17;2.10;;;0.90;;
56911;SDS011;42800;53.928;27.662;2023-03-01T07:30:43;4.97;;;0.90;;
56911;SDS011;42800;53.928;27.662;2023-03-01T07:33:10;6.22;;;0.90;;
56911;SDS011;42800;53.928;27.662;2023-03-01T07:35:36;4.85;;;1.48;;
56911;SDS011;42800;53.928;27.662;2023-03-01T07:38:03;4.28;;;1.10;;
56911;SDS011;42800;53.928;27.662;2023-03-01T07:40:29;4.07;;;1.30;;
56911;SDS011;42800;53.928;27.662;2023-03-01T07:42:55;2.83;;;1.00;;
56911;SDS011;42800;53.928;27.662;2023-03-01T07:45:22;6.40;;;1.80;;
56911;SDS011;42800;53.928;27.662;2023-03-01T07:47:50;4.72;;;1.70;;
56911;SDS011;42800;53.928;27.662;2023-03-01T07:50:16;5.45;;;1.00;;
56911;SDS011;42800;53.928;27.662;2023-03-01T07:52:45;7.47;;;0.98;;
56911;SDS011;42800;53.928;27.662;2023-03-01T07:55:12;4.93;;;0.82;;
56911;SDS011;42800;53.928;27.662;2023-03-01T07:57:38;5.60;;;1.52;;
56911;SDS011;42800;53.928;27.662;2023-03-01T08:00:06;5.18;;;1.08;;
56911;SDS011;42800;53.928;27.662;2023-03-01T08:02:34;7.07;;;1.10;;
56911;SDS011;42800;53.928;27.662;2023-03-01T08:05:00;1.90;;;1.00;;
56911;SDS011;42800;53.928;27.662;2023-03-01T08:07:27;4.65;;;1.00;;
56911;SDS011;42800;53.928;27.662;2023-03-01T08:09:54;4.05;;;0.95;;
56911;SDS011;42800;53.928;27.662;2023-03-01T08:12:20;1.42;;;0.80;;
56911;SDS011;42800;53.928;27.662;2023-03-01T08:14:46;2.70;;;0.70;;
56911;SDS011;42800;53.928;27.662;2023-03-01T08:17:13;1.75;;;0.70;;
56911;SDS011;42800;53.928;27.662;2023-03-01T08:19:39;4.68;;;0.98;;
56911;SDS011;42800;53.928;27.662;2023-03-01T08:22:06;7.03;;;1.08;;
56911;SDS011;42800;53.928;27.662;2023-03-01T08:24:32;2.83;;;0.90;;
56911;SDS011;42800;53.928;27.662;2023-03-01T08:26:59;2.30;;;1.20;;
56911;SDS011;42800;53.928;27.662;2023-03-01T08:29:26;5.65;;;1.48;;
56911;SDS011;42800;53.928;27.662;2023-03-01T08:31:52;2.22;;;0.80;;
56911;SDS011;42800;53.928;27.662;2023-03-01T08:34:18;3.30;;;1.00;;
56911;SDS011;42800;53.928;27.662;2023-03-01T08:36:45;1.50;;;0.70;;
56911;SDS011;42800;53.928;27.662;2023-03-01T08:39:12;11.13;;;1.10;;
56911;SDS011;42800;53.928;27.662;2023-03-01T08:41:40;1.95;;;0.90;;
56911;SDS011;42800;53.928;27.662;2023-03-01T08:44:08;2.78;;;1.08;;
56911;SDS011;42800;53.928;27.662;2023-03-01T08:46:37;4.18;;;1.42;;
56911;SDS011;42800;53.928;27.662;2023-03-01T08:49:05;5.28;;;1.20;;
56911;SDS011;42800;53.928;27.662;2023-03-01T08:51:33;4.97;;;1.92;;
56911;SDS011;42800;53.928;27.662;2023-03-01T08:54:01;8.13;;;1.55;;
56911;SDS011;42800;53.928;27.662;2023-03-01T08:56:28;6.00;;;2.33;;
56911;SDS011;42800;53.928;27.662;2023-03-01T08:58:54;6.22;;;2.33;;
56911;SDS011;42800;53.928;27.662;2023-03-01T09:01:21;4.18;;;1.38;;
56911;SDS011;42800;53.928;27.662;2023-03-01T09:03:47;4.57;;;1.92;;
56911;SDS011;42800;53.928;27.662;2023-03-01T09:06:14;4.40;;;1.17;;
56911;SDS011;42800;53.928;27.662;2023-03-01T09:08:41;3.03;;;0.95;;
56911;SDS011;42800;53.928;27.662;2023-03-01T09:11:10;6.63;;;1.30;;
56911;SDS011;42800;53.928;27.662;2023-03-01T09:13:37;4.80;;;1.20;;
56911;SDS011;42800;53.928;27.662;2023-03-01T09:16:05;3.63;;;1.02;;
56911;SDS011;42800;53.928;27.662;2023-03-01T09:18:33;3.33;;;1.30;;
56911;SDS011;42800;53.928;27.662;2023-03-01T09:21:01;4.35;;;1.10;;
56911;SDS011;42800;53.928;27.662;2023-03-01T09:23:27;4.50;;;1.40;;
56911;SDS011;42800;53.928;27.662;2023-03-01T09:25:54;6.10;;;1.38;;
56911;SDS011;42800;53.928;27.662;2023-03-01T09:28:20;3.95;;;1.20;;
56911;SDS011;42800;53.928;27.662;2023-03-01T09:30:48;1.48;;;0.90;;
56911;SDS011;42800;53.928;27.662;2023-03-01T09:33:14;5.50;;;0.98;;
56911;SDS011;42800;53.928;27.662;2023-03-01T09:35:42;6.40;;;1.35;;
56911;SDS011;42800;53.928;27.662;2023-03-01T09:38:11;6.15;;;1.02;;
56911;SDS011;42800;53.928;27.662;2023-03-01T09:40:41;5.13;;;1.00;;
56911;SDS011;42800;53.928;27.662;2023-03-01T09:43:08;4.38;;;1.20;;
56911;SDS011;42800;53.928;27.662;2023-03-01T09:45:44;4.43;;;0.93;;
56911;SDS011;42800;53.928;27.662;2023-03-01T09:48:15;3.33;;;1.05;;
56911;SDS011;42800;53.928;27.662;2023-03-01T09:50:44;6.28;;;1.63;;
56911;SDS011;42800;53.928;27.662;2023-03-01T09:53:13;4.22;;;1.23;;
56911;SDS011;42800;53.928;27.662;2023-03-01T09:55:42;3.85;;;1.10;;
56911;SDS011;42800;53.928;27.662;2023-03-01T09:58:19;4.45;;;1.38;;
56911;SDS011;42800;53.928;27.662;2023-03-01T10:00:57;3.70;;;1.27;;
56911;SDS011;42800;53.928;27.662;2023-03-01T10:03:30;4.38;;;1.10;;
56911;SDS011;42800;53.928;27.662;2023-03-01T10:06:06;4.88;;;1.42;;
56911;SDS011;42800;53.928;27.662;2023-03-01T10:08:46;6.32;;;1.73;;
56911;SDS011;42800;53.928;27.662;2023-03-01T10:11:18;1.33;;;0.95;;
56911;SDS011;42800;53.928;27.662;2023-03-01T10:13:49;2.75;;;1.00;;
56911;SDS011;42800;53.928;27.662;2023-03-01T10:16:21;2.45;;;1.20;;
56911;SDS011;42800;53.928;27.662;2023-03-01T10:18:52;6.07;;;1.48;;
56911;SDS011;42800;53.928;27.662;2023-03-01T10:21:22;6.32;;;2.78;;
56911;SDS011;42800;53.928;27.662;2023-03-01T10:23:49;1.73;;;1.13;;
56911;SDS011;42800;53.928;27.662;2023-03-01T10:26:21;4.85;;;1.60;;
56911;SDS011;42800;53.928;27.662;2023-03-01T10:28:59;5.60;;;1.58;;
56911;SDS011;42800;53.928;27.662;2023-03-01T10:31:31;4.72;;;1.20;;
56911;SDS011;42800;53.928;27.662;2023-03-01T10:34:09;5.82;;;1.23;;
56911;SDS011;42800;53.928;27.662;2023-03-01T10:36:38;7.28;;;1.50;;
56911;SDS011;42800;53.928;27.662;2023-03-01T10:39:10;2.05;;;0.77;;
56911;SDS011;42800;53.928;27.662;2023-03-01T10:41:40;1.42;;;0.95;;
56911;SDS011;42800;53.928;27.662;2023-03-01T10:44:34;4.05;;;1.50;;
56911;SDS011;42800;53.928;27.662;2023-03-01T10:47:02;5.50;;;1.33;;
56911;SDS011;42800;53.928;27.662;2023-03-01T10:49:29;4.57;;;1.52;;
56911;SDS011;42800;53.928;27.662;2023-03-01T10:51:56;6.18;;;1.25;;
56911;SDS011;42800;53.928;27.662;2023-03-01T10:54:43;2.83;;;1.50;;
56911;SDS011;42800;53.928;27.662;2023-03-01T10:57:24;6.53;;;1.48;;
56911;SDS011;42800;53.928;27.662;2023-03-01T11:00:13;4.28;;;1.60;;
56911;SDS011;42800;53.928;27.662;2023-03-01T11:02:51;3.83;;;1.50;;
56911;SDS011;42800;53.928;27.662;2023-03-01T11:05:28;11.38;;;1.80;;
56911;SDS011;42800;53.928;27.662;2023-03-01T11:07:56;3.08;;;1.45;;
56911;SDS011;42800;53.928;27.662;2023-03-01T11:10:24;7.93;;;2.05;;
56911;SDS011;42800;53.928;27.662;2023-03-01T11:12:52;6.38;;;1.90;;
56911;SDS011;42800;53.928;27.662;2023-03-01T11:15:20;3.65;;;1.45;;
56911;SDS011;42800;53.928;27.662;2023-03-01T11:17:49;2.22;;;1.13;;
56911;SDS011;42800;53.928;27.662;2023-03-01T11:20:18;5.05;;;1.42;;
56911;SDS011;42800;53.928;27.662;2023-03-01T11:22:55;2.78;;;1.10;;
56911;SDS011;42800;53.928;27.662;2023-03-01T11:25:26;3.40;;;1.25;;
56911;SDS011;42800;53.928;27.662;2023-03-01T11:27:54;6.45;;;1.38;;
56911;SDS011;42800;53.928;27.662;2023-03-01T11:30:23;6.45;;;1.25;;
56911;SDS011;42800;53.928;27.662;2023-03-01T11:32:57;6.95;;;1.77;;
56911;SDS011;42800;53.928;27.662;2023-03-01T11:35:31;4.18;;;1.73;;
56911;SDS011;42800;53.928;27.662;2023-03-01T11:38:02;7.68;;;1.15;;
56911;SDS011;42800;53.928;27.662;2023-03-01T11:40:39;4.68;;;1.45;;
56911;SDS011;42800;53.928;27.662;2023-03-01T11:43:11;3.88;;;1.27;;
56911;SDS011;42800;53.928;27.662;2023-03-01T11:45:47;3.08;;;1.50;;
56911;SDS011;42800;53.928;27.662;2023-03-01T11:48:32;5.03;;;1.27;;
56911;SDS011;42800;53.928;27.662;2023-03-01T11:51:08;6.85;;;1.30;;
56911;SDS011;42800;53.928;27.662;2023-03-01T11:53:52;6.22;;;1.52;;
56911;SDS011;42800;53.928;27.662;2023-03-01T11:56:28;7.47;;;1.90;;
56911;SDS011;42800;53.928;27.662;2023-03-01T11:59:06;3.08;;;1.80;;
56911;SDS011;42800;53.928;27.662;2023-03-01T12:02:00;3.55;;;1.10;;
56911;SDS011;42800;53.928;27.662;2023-03-01T12:07:50;2.47;;;1.02;;
56911;SDS011;42800;53.928;27.662;2023-03-01T12:10:25;7.82;;;1.35;;
56911;SDS011;42800;53.928;27.662;2023-03-01T12:13:05;5.40;;;1.08;;
56911;SDS011;42800;53.928;27.662;2023-03-01T12:15:59;5.00;;;1.40;;
56911;SDS011;42800;53.928;27.662;2023-03-01T12:18:49;13.85;;;1.60;;
56911;SDS011;42800;53.928;27.662;2023-03-01T12:21:40;4.10;;;1.10;;
56911;SDS011;42800;53.928;27.662;2023-03-01T12:24:26;5.47;;;1.20;;
56911;SDS011;42800;53.928;27.662;2023-03-01T12:27:11;5.47;;;1.27;;
56911;SDS011;42800;53.928;27.662;2023-03-01T12:29:52;3.60;;;1.30;;
56911;SDS011;42800;53.928;27.662;2023-03-01T12:32:31;7.40;;;1.65;;
56911;SDS011;42800;53.928;27.662;2023-03-01T12:35:09;8.52;;;1.92;;
56911;SDS011;42800;53.928;27.662;2023-03-01T12:37:48;4.97;;;1.48;;
56911;SDS011;42800;53.928;27.662;2023-03-01T12:40:32;4.28;;;1.45;;
56911;SDS011;42800;53.928;27.662;2023-03-01T12:43:10;3.78;;;1.38;;
56911;SDS011;42800;53.928;27.662;2023-03-01T12:45:55;11.32;;;1.80;;
56911;SDS011;42800;53.928;27.662;2023-03-01T12:48:40;7.93;;;1.90;;
56911;SDS011;42800;53.928;27.662;2023-03-01T12:51:14;7.40;;;1.77;;
56911;SDS011;42800;53.928;27.662;2023-03-01T12:53:45;5.40;;;2.28;;
56911;SDS011;42800;53.928;27.662;2023-03-01T12:56:14;11.05;;;2.20;;
56911;SDS011;42800;53.928;27.662;2023-03-01T12:58:46;4.60;;;1.50;;
56911;SDS011;42800;53.928;27.662;2023-03-01T13:01:22;11.63;;;1.05;;
56911;SDS011;42800;53.928;27.662;2023-03-01T13:03:58;2.88;;;1.02;;
56911;SDS011;42800;53.928;27.662;2023-03-01T13:06:47;4.40;;;1.67;;
56911;SDS011;42800;53.928;27.662;2023-03-01T13:09:23;9.60;;;1.75;;
56911;SDS011;42800;53.928;27.662;2023-03-01T13:11:56;8.05;;;1.15;;
56911;SDS011;42800;53.928;27.662;2023-03-01T13:14:35;3.30;;;1.38;;
56911;SDS011;42800;53.928;27.662;2023-03-01T13:17:30;3.55;;;1.42;;
56911;SDS011;42800;53.928;27.662;2023-03-01T13:20:11;3.85;;;1.52;;
56911;SDS011;42800;53.928;27.662;2023-03-01T13:22:40;5.13;;;1.13;;
56911;SDS011;42800;53.928;27.662;2023-03-01T13:25:14;2.35;;;1.70;;
56911;SDS011;42800;53.928;27.662;2023-03-01T13:27:43;6.50;;;1.25;;
56911;SDS011;42800;53.928;27.662;2023-03-01T13:30:39;7.40;;;1.80;;
56911;SDS011;42800;53.928;27.662;2023-03-01T13:36:06;3.67;;;1.20;;
56911;SDS011;42800;53.928;27.662;2023-03-01T13:38:38;9.07;;;1.45;;
56911;SDS011;42800;53.928;27.662;2023-03-01T13:41:16;2.67;;;1.33;;
56911;SDS011;42800;53.928;27.662;2023-03-01T13:44:08;6.28;;;1.20;;
56911;SDS011;42800;53.928;27.662;2023-03-01T13:46:38;9.45;;;1.88;;
56911;SDS011;42800;53.928;27.662;2023-03-01T13:49:09;3.75;;;1.27;;
56911;SDS011;42800;53.928;27.662;2023-03-01T13:51:41;3.35;;;1.40;;
56911;SDS011;42800;53.928;27.662;2023-03-01T13:54:12;6.25;;;1.17;;
56911;SDS011;42800;53.928;27.662;2023-03-01T13:56:40;3.55;;;1.35;;
56911;SDS011;42800;53.928;27.662;2023-03-01T13:59:13;6.18;;;1.58;;
56911;SDS011;42800;53.928;27.662;2023-03-01T14:01:40;6.30;;;2.10;;
56911;SDS011;42800;53.928;27.662;2023-03-01T14:04:20;4.53;;;1.52;;
56911;SDS011;42800;53.928;27.662;2023-03-01T14:06:47;6.85;;;1.50;;
56911;SDS011;42800;53.928;27.662;2023-03-01T14:09:15;4.07;;;1.50;;
56911;SDS011;42800;53.928;27.662;2023-03-01T14:14:41;6.95;;;1.10;;
56911;SDS011;42800;53.928;27.662;2023-03-01T14:22:42;7.07;;;1.13;;
56911;SDS011;42800;53.928;27.662;2023-03-01T14:28:02;6.88;;;1.25;;
56911;SDS011;42800;53.928;27.662;2023-03-01T14:30:32;1.48;;;0.98;;
56911;SDS011;42800;53.928;27.662;2023-03-01T14:33:03;3.25;;;1.10;;
56911;SDS011;42800;53.928;27.662;2023-03-01T14:35:32;5.85;;;1.40;;
56911;SDS011;42800;53.928;27.662;2023-03-01T14:37:59;6.57;;;1.45;;
56911;SDS011;42800;53.928;27.662;2023-03-01T14:40:28;6.50;;;1.50;;
56911;SDS011;42800;53.928;27.662;2023-03-01T14:42:56;7.07;;;1.83;;
56911;SDS011;42800;53.928;27.662;2023-03-01T14:45:25;4.05;;;1.80;;
56911;SDS011;42800;53.928;27.662;2023-03-01T14:47:54;6.50;;;2.17;;
56911;SDS011;42800;53.928;27.662;2023-03-01T14:50:25;7.95;;;1.90;;
56911;SDS011;42800;53.928;27.662;2023-03-01T14:52:53;4.78;;;1.98;;
56911;SDS011;42800;53.928;27.662;2023-03-01T14:55:22;8.50;;;1.88;;
56911;SDS011;42800;53.928;27.662;2023-03-01T14:57:52;9.73;;;1.92;;
56911;SDS011;42800;53.928;27.662;2023-03-01T15:00:20;5.80;;;2.10;;
56911;SDS011;42800;53.928;27.662;2023-03-01T15:02:48;6.80;;;1.83;;
56911;SDS011;42800;53.928;27.662;2023-03-01T15:05:18;13.05;;;2.05;;
56911;SDS011;42800;53.928;27.662;2023-03-01T15:07:49;7.90;;;2.38;;
56911;SDS011;42800;53.928;27.662;2023-03-01T15:10:17;12.38;;;2.03;;